createdAt,value
2018-12-05T00:00:38.163Z,0
2018-12-05T00:01:37.969Z,0
2018-12-05T00:02:38.131Z,0
2018-12-05T00:03:38.111Z,0
2018-12-05T00:04:37.842Z,0
2018-12-05T00:05:38.062Z,0
2018-12-05T00:06:38.131Z,0
2018-12-05T00:07:37.773Z,0
2018-12-05T00:08:37.758Z,0
2018-12-05T00:09:37.989Z,0
2018-12-05T00:10:38.019Z,0
2018-12-05T00:11:38.481Z,0
2018-12-05T00:12:37.929Z,0
2018-12-05T00:13:37.910Z,0
2018-12-05T00:14:37.886Z,0
2018-12-05T00:15:37.866Z,0
2018-12-05T00:16:37.842Z,0
2018-12-05T00:17:38.473Z,0
2018-12-05T00:18:37.558Z,0
2018-12-05T00:20:07.086Z,0
2018-12-05T00:20:37.264Z,0
2018-12-05T00:21:37.746Z,0
2018-12-05T00:22:37.716Z,0
2018-12-05T00:23:37.693Z,0
2018-12-05T00:24:37.685Z,0
2018-12-05T00:25:37.664Z,0
2018-12-05T00:26:37.641Z,0
2018-12-05T00:27:37.381Z,0
2018-12-05T00:28:37.359Z,0
2018-12-05T00:29:37.574Z,0
2018-12-05T00:30:37.304Z,0
2018-12-05T00:31:37.540Z,0
2018-12-05T00:32:37.519Z,0
2018-12-05T00:33:37.510Z,0
2018-12-05T00:34:37.473Z,0
2018-12-05T00:35:37.455Z,0
2018-12-05T00:36:37.436Z,0
2018-12-05T00:37:37.419Z,0
2018-12-05T00:38:37.400Z,0
2018-12-05T00:39:37.133Z,0
2018-12-05T00:40:37.358Z,0
2018-12-05T00:41:37.422Z,0
2018-12-05T00:42:37.323Z,0
2018-12-05T00:43:37.305Z,0
2018-12-05T00:44:37.280Z,0
2018-12-05T00:45:37.008Z,0
2018-12-05T00:46:37.236Z,0
2018-12-05T00:47:37.226Z,0
2018-12-05T00:48:37.196Z,0
2018-12-05T00:49:36.930Z,0
2018-12-05T00:50:37.162Z,0
2018-12-05T00:51:37.146Z,0
2018-12-05T00:52:37.117Z,0
2018-12-05T00:53:36.851Z,0
2018-12-05T00:54:37.080Z,0
2018-12-05T00:55:37.063Z,0
2018-12-05T00:56:37.039Z,0
2018-12-05T00:57:36.779Z,0
2018-12-05T00:58:37.012Z,0
2018-12-05T00:59:36.978Z,0
2018-12-05T01:00:36.960Z,0
2018-12-05T01:01:36.942Z,0
2018-12-05T01:02:36.924Z,0
2018-12-05T01:03:36.908Z,0
2018-12-05T01:04:36.878Z,0
2018-12-05T01:05:36.863Z,0
2018-12-05T01:06:36.594Z,0
2018-12-05T01:07:36.830Z,0
2018-12-05T01:08:36.576Z,0
2018-12-05T01:09:36.784Z,0
2018-12-05T01:10:36.517Z,0
2018-12-05T01:11:36.753Z,0
2018-12-05T01:12:36.480Z,0
2018-12-05T01:13:36.707Z,0
2018-12-05T01:14:36.436Z,0
2018-12-05T01:15:36.661Z,0
2018-12-05T01:16:36.647Z,0
2018-12-05T01:17:36.626Z,0
2018-12-05T01:18:36.603Z,0
2018-12-05T01:19:36.584Z,0
2018-12-05T01:20:36.587Z,0
2018-12-05T01:21:36.546Z,0
2018-12-05T01:22:36.522Z,0
2018-12-05T01:23:36.258Z,0
2018-12-05T01:24:36.486Z,0
2018-12-05T01:25:36.222Z,0
2018-12-05T01:26:36.446Z,0
2018-12-05T01:27:36.431Z,0
2018-12-05T01:28:36.166Z,0
2018-12-05T01:29:36.387Z,0
2018-12-05T01:30:36.375Z,0
2018-12-05T01:31:36.121Z,0
2018-12-05T01:32:36.323Z,0
2018-12-05T01:33:36.314Z,0
2018-12-05T01:34:36.046Z,0
2018-12-05T01:35:36.264Z,0
2018-12-05T01:36:36.008Z,0
2018-12-05T01:37:36.236Z,0
2018-12-05T01:38:36.210Z,0
2018-12-05T01:39:35.941Z,0
2018-12-05T01:40:36.186Z,0
2018-12-05T01:41:36.156Z,0
2018-12-05T01:42:36.138Z,0
2018-12-05T01:43:36.111Z,0
2018-12-05T01:44:35.847Z,0
2018-12-05T01:45:36.077Z,0
2018-12-05T01:46:35.574Z,0
2018-12-05T01:47:36.037Z,0
2018-12-05T01:48:36.017Z,0
2018-12-05T01:49:36.005Z,0
2018-12-05T01:50:35.977Z,0
2018-12-05T01:51:35.969Z,0
2018-12-05T01:52:35.690Z,0
2018-12-05T01:53:35.922Z,0
2018-12-05T01:54:35.907Z,0
2018-12-05T01:55:35.888Z,0
2018-12-05T01:56:35.626Z,0
2018-12-05T01:57:35.845Z,0
2018-12-05T01:58:35.822Z,0
2018-12-05T01:59:35.809Z,0
2018-12-05T02:00:35.538Z,0
2018-12-05T02:01:35.775Z,0
2018-12-05T02:02:35.751Z,0
2018-12-05T02:03:35.730Z,0
2018-12-05T02:04:35.708Z,0
2018-12-05T02:05:35.693Z,0
2018-12-05T02:06:35.748Z,0
2018-12-05T02:07:35.654Z,0
2018-12-05T02:08:35.628Z,0
2018-12-05T02:09:35.368Z,0
2018-12-05T02:10:35.347Z,0
2018-12-05T02:11:35.569Z,0
2018-12-05T02:12:35.056Z,0
2018-12-05T02:13:35.534Z,0
2018-12-05T02:14:35.525Z,0
2018-12-05T02:15:35.509Z,0
2018-12-05T02:16:35.561Z,0
2018-12-05T02:17:35.208Z,0
2018-12-05T02:18:35.209Z,0
2018-12-05T02:19:35.428Z,0
2018-12-05T02:20:35.153Z,0
2018-12-05T02:21:35.387Z,0
2018-12-05T02:22:35.361Z,0
2018-12-05T02:23:35.340Z,0
2018-12-05T02:24:35.335Z,0
2018-12-05T02:25:35.057Z,0
2018-12-05T02:26:35.284Z,0
2018-12-05T02:27:35.020Z,0
2018-12-05T02:28:35.250Z,0
2018-12-05T02:29:35.226Z,0
2018-12-05T02:30:35.212Z,0
2018-12-05T02:31:35.194Z,0
2018-12-05T02:32:35.178Z,0
2018-12-05T02:33:34.911Z,0
2018-12-05T02:34:35.142Z,0
2018-12-05T02:35:34.871Z,0
2018-12-05T02:36:35.098Z,0
2018-12-05T02:37:35.072Z,0
2018-12-05T02:38:35.061Z,0
2018-12-05T02:39:35.041Z,0
2018-12-05T02:40:35.019Z,0
2018-12-05T02:41:35.004Z,0
2018-12-05T02:42:34.813Z,0
2018-12-05T02:43:34.723Z,0
2018-12-05T02:44:34.772Z,0
2018-12-05T02:45:34.691Z,0
2018-12-05T02:46:34.905Z,0
2018-12-05T02:47:34.664Z,0
2018-12-05T02:48:34.654Z,0
2018-12-05T02:49:34.601Z,0
2018-12-05T02:50:34.573Z,0
2018-12-05T02:51:34.810Z,0
2018-12-05T02:52:34.785Z,0
2018-12-05T02:53:34.764Z,0
2018-12-05T02:54:34.747Z,0
2018-12-05T02:55:34.479Z,0
2018-12-05T02:56:34.704Z,0
2018-12-05T02:57:34.699Z,0
2018-12-05T02:58:34.669Z,0
2018-12-05T02:59:34.646Z,0
2018-12-05T03:00:34.642Z,0
2018-12-05T03:01:34.608Z,0
2018-12-05T03:02:34.606Z,0
2018-12-05T03:03:34.589Z,0
2018-12-05T03:04:34.551Z,0
2018-12-05T03:05:34.557Z,0
2018-12-05T03:06:34.520Z,0
2018-12-05T03:07:34.621Z,0
2018-12-05T03:08:34.236Z,0
2018-12-05T03:09:34.479Z,0
2018-12-05T03:10:34.451Z,0
2018-12-05T03:11:34.169Z,0
2018-12-05T03:12:34.151Z,0
2018-12-05T03:13:34.131Z,0
2018-12-05T03:14:34.362Z,0
2018-12-05T03:15:34.342Z,0
2018-12-05T03:16:34.319Z,0
2018-12-05T03:17:33.807Z,0
2018-12-05T03:18:33.785Z,0
2018-12-05T03:19:34.268Z,0
2018-12-05T03:20:34.005Z,0
2018-12-05T03:21:34.221Z,0
2018-12-05T03:22:34.204Z,0
2018-12-05T03:23:34.174Z,0
2018-12-05T03:24:34.169Z,0
2018-12-05T03:25:34.156Z,0
2018-12-05T03:26:34.146Z,0
2018-12-05T03:27:34.110Z,0
2018-12-05T03:28:34.082Z,0
2018-12-05T03:29:33.819Z,0
2018-12-05T03:30:34.055Z,0
2018-12-05T03:31:34.040Z,0
2018-12-05T03:32:34.030Z,0
2018-12-05T03:33:34.042Z,0
2018-12-05T03:34:33.958Z,0
2018-12-05T03:35:33.697Z,0
2018-12-05T03:36:34.043Z,0
2018-12-05T03:37:33.905Z,0
2018-12-05T03:38:33.646Z,0
2018-12-05T03:39:33.647Z,0
2018-12-05T03:40:33.853Z,0
2018-12-05T03:41:33.591Z,0
2018-12-05T03:42:33.559Z,0
2018-12-05T03:43:33.783Z,0
2018-12-05T03:44:33.364Z,0
2018-12-05T03:45:33.930Z,0
2018-12-05T03:46:33.746Z,0
2018-12-05T03:47:33.716Z,0
2018-12-05T03:48:33.694Z,0
2018-12-05T03:49:33.671Z,0
2018-12-05T03:50:33.646Z,0
2018-12-05T03:51:33.388Z,0
2018-12-05T03:52:33.613Z,0
2018-12-05T03:53:33.587Z,0
2018-12-05T03:54:33.600Z,0
2018-12-05T03:55:33.563Z,0
2018-12-05T03:56:33.534Z,0
2018-12-05T03:57:33.514Z,0
2018-12-05T03:58:33.493Z,0
2018-12-05T03:59:33.501Z,0
2018-12-05T04:00:33.456Z,0
2018-12-05T04:01:33.184Z,0
2018-12-05T04:02:33.418Z,0
2018-12-05T04:03:33.411Z,0
2018-12-05T04:04:33.397Z,0
2018-12-05T04:05:33.351Z,0
2018-12-05T04:06:33.113Z,0
2018-12-05T04:07:33.323Z,0
2018-12-05T04:08:33.303Z,0
2018-12-05T04:09:33.276Z,0
2018-12-05T04:10:33.271Z,0
2018-12-05T04:11:32.991Z,0
2018-12-05T04:12:40.384Z,0
2018-12-05T04:13:32.964Z,0
2018-12-05T04:14:33.184Z,0
2018-12-05T04:15:32.919Z,0
2018-12-05T04:16:33.154Z,0
2018-12-05T04:17:33.124Z,0
2018-12-05T04:18:33.113Z,0
2018-12-05T04:19:33.084Z,0
2018-12-05T04:20:33.083Z,0
2018-12-05T04:21:33.046Z,0
2018-12-05T04:22:33.019Z,0
2018-12-05T04:23:33.003Z,0
2018-12-05T04:24:32.982Z,0
2018-12-05T04:25:32.717Z,0
2018-12-05T04:26:32.705Z,0
2018-12-05T04:27:32.927Z,0
2018-12-05T04:28:32.912Z,0
2018-12-05T04:29:32.891Z,0
2018-12-05T04:30:32.939Z,0
2018-12-05T04:31:32.846Z,0
2018-12-05T04:32:32.596Z,0
2018-12-05T04:33:32.807Z,0
2018-12-05T04:34:32.784Z,0
2018-12-05T04:35:32.525Z,0
2018-12-05T04:36:32.749Z,0
2018-12-05T04:37:32.733Z,0
2018-12-05T04:38:32.467Z,0
2018-12-05T04:39:32.686Z,0
2018-12-05T04:40:32.416Z,0
2018-12-05T04:41:32.709Z,0
2018-12-05T04:42:32.646Z,0
2018-12-05T04:43:32.611Z,0
2018-12-05T04:44:32.688Z,0
2018-12-05T04:45:32.567Z,0
2018-12-05T04:46:32.552Z,0
2018-12-05T04:47:32.286Z,0
2018-12-05T04:48:32.506Z,0
2018-12-05T04:49:32.500Z,0
2018-12-05T04:50:32.507Z,0
2018-12-05T04:51:32.453Z,0
2018-12-05T04:52:32.430Z,0
2018-12-05T04:53:32.540Z,0
2018-12-05T04:54:32.408Z,0
2018-12-05T04:55:32.375Z,0
2018-12-05T04:56:32.356Z,0
2018-12-05T04:57:32.342Z,0
2018-12-05T04:58:32.310Z,0
2018-12-05T04:59:32.296Z,0
2018-12-05T05:00:32.275Z,0
2018-12-05T05:01:32.253Z,0
2018-12-05T05:02:32.251Z,0
2018-12-05T05:03:32.226Z,0
2018-12-05T05:04:32.201Z,0
2018-12-05T05:05:32.175Z,0
2018-12-05T05:06:32.161Z,0
2018-12-05T05:07:32.143Z,0
2018-12-05T05:08:32.126Z,0
2018-12-05T05:09:32.101Z,0
2018-12-05T05:10:32.172Z,0
2018-12-05T05:11:32.067Z,0
2018-12-05T05:12:32.043Z,0
2018-12-05T05:13:32.022Z,0
2018-12-05T05:14:31.749Z,0
2018-12-05T05:15:31.980Z,0
2018-12-05T05:16:31.972Z,0
2018-12-05T05:17:31.945Z,0
2018-12-05T05:18:31.921Z,0
2018-12-05T05:19:31.896Z,0
2018-12-05T05:20:31.886Z,0
2018-12-05T05:21:31.902Z,0
2018-12-05T05:22:31.850Z,0
2018-12-05T05:23:31.826Z,0
2018-12-05T05:24:31.547Z,0
2018-12-05T05:25:31.786Z,0
2018-12-05T05:26:31.519Z,0
2018-12-05T05:27:31.736Z,0
2018-12-05T05:28:31.717Z,0
2018-12-05T05:29:31.706Z,0
2018-12-05T05:30:31.686Z,0
2018-12-05T05:31:31.662Z,0
2018-12-05T05:32:31.651Z,0
2018-12-05T05:33:31.626Z,0
2018-12-05T05:34:31.595Z,0
2018-12-05T05:35:31.586Z,0
2018-12-05T05:36:31.796Z,0
2018-12-05T05:37:31.550Z,0
2018-12-05T05:38:31.520Z,0
2018-12-05T05:39:31.257Z,0
2018-12-05T05:40:31.484Z,0
2018-12-05T05:41:31.469Z,0
2018-12-05T05:42:31.189Z,0
2018-12-05T05:43:31.425Z,0
2018-12-05T05:44:31.159Z,0
2018-12-05T05:45:31.390Z,0
2018-12-05T05:46:31.123Z,0
2018-12-05T05:47:31.346Z,0
2018-12-05T05:48:31.325Z,0
2018-12-05T05:49:31.307Z,0
2018-12-05T05:50:31.289Z,0
2018-12-05T05:51:31.267Z,0
2018-12-05T05:52:31.243Z,0
2018-12-05T05:53:31.233Z,0
2018-12-05T05:54:31.212Z,0
2018-12-05T05:55:31.194Z,0
2018-12-05T05:56:31.165Z,0
2018-12-05T05:57:31.221Z,0
2018-12-05T05:58:31.120Z,0
2018-12-05T05:59:31.104Z,0
2018-12-05T06:00:31.082Z,0
2018-12-05T06:01:31.066Z,0
2018-12-05T06:02:31.040Z,0
2018-12-05T06:03:31.036Z,0
2018-12-05T06:04:31.008Z,0
2018-12-05T06:05:30.991Z,0
2018-12-05T06:06:30.970Z,0
2018-12-05T06:07:30.945Z,0
2018-12-05T06:08:30.926Z,0
2018-12-05T06:09:30.904Z,0
2018-12-05T06:10:30.882Z,0
2018-12-05T06:11:30.870Z,0
2018-12-05T06:12:30.850Z,0
2018-12-05T06:13:30.827Z,0
2018-12-05T06:14:30.565Z,0
2018-12-05T06:15:30.784Z,0
2018-12-05T06:16:30.520Z,0
2018-12-05T06:17:30.755Z,0
2018-12-05T06:18:30.735Z,0
2018-12-05T06:19:30.467Z,4
2018-12-05T06:20:30.696Z,4
2018-12-05T06:21:30.670Z,0
2018-12-05T06:22:30.645Z,0
2018-12-05T06:23:30.624Z,4
2018-12-05T06:24:30.861Z,0
2018-12-05T06:25:30.597Z,4
2018-12-05T06:26:30.570Z,4
2018-12-05T06:27:30.299Z,4
2018-12-05T06:28:30.519Z,4
2018-12-05T06:29:30.500Z,8
2018-12-05T06:30:30.481Z,8
2018-12-05T06:31:30.460Z,12
2018-12-05T06:32:30.194Z,12
2018-12-05T06:33:30.890Z,12
2018-12-05T06:34:30.156Z,16
2018-12-05T06:35:30.387Z,16
2018-12-05T06:36:30.356Z,24
2018-12-05T06:37:30.347Z,28
2018-12-05T06:38:30.327Z,28
2018-12-05T06:39:30.304Z,36
2018-12-05T06:40:30.280Z,40
2018-12-05T06:41:30.317Z,44
2018-12-05T06:42:30.246Z,52
2018-12-05T06:43:30.224Z,60
2018-12-05T06:44:29.959Z,68
2018-12-05T06:45:30.185Z,76
2018-12-05T06:46:30.161Z,84
2018-12-05T06:47:30.421Z,92
2018-12-05T06:48:30.166Z,104
2018-12-05T06:49:30.110Z,112
2018-12-05T06:50:30.086Z,124
2018-12-05T06:51:30.067Z,136
2018-12-05T06:52:30.044Z,144
2018-12-05T06:53:30.026Z,160
2018-12-05T06:54:30.003Z,172
2018-12-05T06:55:29.982Z,184
2018-12-05T06:56:29.958Z,200
2018-12-05T06:57:29.688Z,216
2018-12-05T06:58:29.922Z,236
2018-12-05T06:59:29.903Z,256
2018-12-05T07:00:29.889Z,276
2018-12-05T07:01:29.863Z,296
2018-12-05T07:02:29.840Z,312
2018-12-05T07:03:29.819Z,332
2018-12-05T07:04:29.963Z,344
2018-12-05T07:05:29.782Z,368
2018-12-05T07:06:29.755Z,380
2018-12-05T07:07:29.731Z,400
2018-12-05T07:08:29.715Z,420
2018-12-05T07:09:29.697Z,440
2018-12-05T07:10:29.675Z,460
2018-12-05T07:11:29.667Z,484
2018-12-05T07:12:29.635Z,504
2018-12-05T07:13:29.369Z,528
2018-12-05T07:14:29.594Z,552
2018-12-05T07:15:29.574Z,584
2018-12-05T07:16:29.555Z,612
2018-12-05T07:17:29.538Z,648
2018-12-05T07:18:29.519Z,676
2018-12-05T07:19:29.266Z,704
2018-12-05T07:20:29.474Z,724
2018-12-05T07:21:29.477Z,740
2018-12-05T07:22:29.437Z,756
2018-12-05T07:23:29.414Z,780
2018-12-05T07:24:29.405Z,800
2018-12-05T07:25:29.376Z,824
2018-12-05T07:26:29.357Z,852
2018-12-05T07:27:29.335Z,868
2018-12-05T07:28:29.408Z,884
2018-12-05T07:29:29.305Z,896
2018-12-05T07:30:36.537Z,912
2018-12-05T07:31:29.250Z,924
2018-12-05T07:32:29.231Z,932
2018-12-05T07:33:29.222Z,936
2018-12-05T07:34:29.190Z,948
2018-12-05T07:35:28.944Z,968
2018-12-05T07:36:30.434Z,980
2018-12-05T07:37:29.136Z,1004
2018-12-05T07:38:29.125Z,1024
2018-12-05T07:39:29.103Z,1044
2018-12-05T07:40:29.081Z,1068
2018-12-05T07:41:28.810Z,1096
2018-12-05T07:42:29.035Z,1120
2018-12-05T07:43:29.015Z,1152
2018-12-05T07:44:29.074Z,1180
2018-12-05T07:45:28.969Z,1212
2018-12-05T07:46:28.704Z,1256
2018-12-05T07:47:28.940Z,1300
2018-12-05T07:48:28.918Z,1336
2018-12-05T07:49:28.895Z,1372
2018-12-05T07:50:28.887Z,1400
2018-12-05T07:51:28.854Z,1428
2018-12-05T07:52:28.839Z,1440
2018-12-05T07:53:28.576Z,1440
2018-12-05T07:54:28.795Z,1412
2018-12-05T07:55:28.526Z,1396
2018-12-05T07:56:28.760Z,1404
2018-12-05T07:57:28.735Z,1412
2018-12-05T07:58:28.478Z,1416
2018-12-05T07:59:28.701Z,1408
2018-12-05T08:00:28.677Z,1372
2018-12-05T08:01:28.668Z,1320
2018-12-05T08:02:28.397Z,1284
2018-12-05T08:03:28.628Z,1264
2018-12-05T08:04:28.363Z,1264
2018-12-05T08:05:28.584Z,1280
2018-12-05T08:06:28.555Z,1292
2018-12-05T08:07:28.539Z,1292
2018-12-05T08:08:28.527Z,1284
2018-12-05T08:09:28.497Z,1284
2018-12-05T08:10:28.476Z,1288
2018-12-05T08:11:28.213Z,1304
2018-12-05T08:12:28.443Z,1308
2018-12-05T08:13:28.418Z,1316
2018-12-05T08:14:28.411Z,1320
2018-12-05T08:15:28.134Z,1324
2018-12-05T08:16:28.368Z,1328
2018-12-05T08:17:28.340Z,1336
2018-12-05T08:18:28.316Z,1340
2018-12-05T08:19:28.300Z,1344
2018-12-05T08:20:28.044Z,1348
2018-12-05T08:21:28.269Z,1344
2018-12-05T08:22:27.999Z,1348
2018-12-05T08:23:28.227Z,1344
2018-12-05T08:24:28.206Z,1344
2018-12-05T08:25:28.190Z,1336
2018-12-05T08:26:27.919Z,1336
2018-12-05T08:27:27.656Z,1332
2018-12-05T08:28:28.124Z,1332
2018-12-05T08:29:28.120Z,1344
2018-12-05T08:30:27.837Z,1348
2018-12-05T08:31:28.069Z,1352
2018-12-05T08:32:28.045Z,1356
2018-12-05T08:33:27.785Z,1360
2018-12-05T08:34:28.005Z,1360
2018-12-05T08:35:27.991Z,1360
2018-12-05T08:36:27.716Z,1360
2018-12-05T08:37:27.948Z,1380
2018-12-05T08:38:27.936Z,1388
2018-12-05T08:39:27.913Z,1396
2018-12-05T08:40:27.890Z,1400
2018-12-05T08:41:27.616Z,1404
2018-12-05T08:42:27.605Z,1408
2018-12-05T08:43:27.841Z,1416
2018-12-05T08:44:27.569Z,1420
2018-12-05T08:45:27.803Z,1424
2018-12-05T08:46:27.776Z,1424
2018-12-05T08:47:33.612Z,1432
2018-12-05T08:48:27.733Z,1436
2018-12-05T08:49:27.722Z,1440
2018-12-05T08:50:27.699Z,1440
2018-12-05T08:51:27.430Z,1444
2018-12-05T08:52:27.667Z,1448
2018-12-05T08:53:27.639Z,1452
2018-12-05T08:54:27.933Z,1460
2018-12-05T08:55:27.607Z,1460
2018-12-05T08:56:27.336Z,1464
2018-12-05T08:57:27.564Z,1472
2018-12-05T08:58:27.553Z,1472
2018-12-05T08:59:27.515Z,1480
2018-12-05T09:00:27.506Z,1480
2018-12-05T09:01:27.493Z,1484
2018-12-05T09:02:27.933Z,1488
2018-12-05T09:03:27.210Z,1492
2018-12-05T09:04:27.441Z,1496
2018-12-05T09:05:27.419Z,1500
2018-12-05T09:06:27.405Z,1500
2018-12-05T09:07:27.369Z,1504
2018-12-05T09:08:27.355Z,1500
2018-12-05T09:09:27.333Z,1504
2018-12-05T09:10:27.314Z,1508
2018-12-05T09:11:27.058Z,1508
2018-12-05T09:12:27.273Z,1508
2018-12-05T09:13:27.261Z,1508
2018-12-05T09:14:33.443Z,1512
2018-12-05T09:15:27.369Z,1512
2018-12-05T09:16:27.208Z,1512
2018-12-05T09:17:26.931Z,1512
2018-12-05T09:18:27.165Z,1512
2018-12-05T09:19:27.149Z,1524
2018-12-05T09:20:27.134Z,1528
2018-12-05T09:21:27.113Z,1528
2018-12-05T09:22:27.088Z,1528
2018-12-05T09:23:26.816Z,1524
2018-12-05T09:24:27.051Z,1528
2018-12-05T09:25:26.780Z,1528
2018-12-05T09:26:27.009Z,1524
2018-12-05T09:27:26.986Z,1528
2018-12-05T09:28:26.970Z,1528
2018-12-05T09:29:26.960Z,1524
2018-12-05T09:30:26.936Z,1528
2018-12-05T09:31:26.914Z,1524
2018-12-05T09:32:26.896Z,1524
2018-12-05T09:33:26.880Z,1528
2018-12-05T09:34:26.861Z,1528
2018-12-05T09:35:26.844Z,1536
2018-12-05T09:36:26.826Z,1536
2018-12-05T09:37:26.807Z,1540
2018-12-05T09:38:26.800Z,1548
2018-12-05T09:39:26.766Z,1548
2018-12-05T09:40:26.741Z,1552
2018-12-05T09:41:26.725Z,1548
2018-12-05T09:42:26.711Z,1548
2018-12-05T09:43:26.692Z,1548
2018-12-05T09:44:26.674Z,1544
2018-12-05T09:45:26.659Z,1552
2018-12-05T09:46:26.640Z,1552
2018-12-05T09:47:26.622Z,1560
2018-12-05T09:48:26.602Z,1568
2018-12-05T09:49:26.333Z,1576
2018-12-05T09:50:26.558Z,1588
2018-12-05T09:51:26.544Z,1604
2018-12-05T09:52:26.525Z,1616
2018-12-05T09:53:26.507Z,1620
2018-12-05T09:54:26.488Z,1620
2018-12-05T09:55:26.480Z,1616
2018-12-05T09:56:26.450Z,1624
2018-12-05T09:57:26.186Z,1632
2018-12-05T09:58:26.423Z,1636
2018-12-05T09:59:26.400Z,1640
2018-12-05T10:00:26.382Z,1648
2018-12-05T10:01:26.362Z,1644
2018-12-05T10:02:26.338Z,1644
2018-12-05T10:03:26.368Z,1652
2018-12-05T10:04:26.049Z,1660
2018-12-05T10:05:26.285Z,1672
2018-12-05T10:06:26.263Z,1684
2018-12-05T10:07:26.327Z,1688
2018-12-05T10:08:26.231Z,1696
2018-12-05T10:09:26.216Z,1700
2018-12-05T10:10:26.198Z,1716
2018-12-05T10:11:26.175Z,1732
2018-12-05T10:12:26.160Z,1744
2018-12-05T10:13:26.136Z,1752
2018-12-05T10:14:26.128Z,1768
2018-12-05T10:15:25.858Z,1780
2018-12-05T10:16:25.835Z,1784
2018-12-05T10:17:26.068Z,1784
2018-12-05T10:18:25.801Z,1780
2018-12-05T10:19:26.031Z,1780
2018-12-05T10:20:25.762Z,1780
2018-12-05T10:21:26.000Z,1776
2018-12-05T10:22:25.973Z,1772
2018-12-05T10:23:25.960Z,1772
2018-12-05T10:24:25.941Z,1764
2018-12-05T10:25:25.922Z,1776
2018-12-05T10:26:25.903Z,1792
2018-12-05T10:27:25.883Z,1816
2018-12-05T10:28:25.872Z,1824
2018-12-05T10:29:25.850Z,1824
2018-12-05T10:30:25.832Z,1828
2018-12-05T10:31:25.823Z,1816
2018-12-05T10:32:25.795Z,1812
2018-12-05T10:33:25.777Z,1816
2018-12-05T10:34:25.760Z,1828
2018-12-05T10:35:25.748Z,1828
2018-12-05T10:36:25.719Z,1832
2018-12-05T10:37:25.707Z,1848
2018-12-05T10:38:25.703Z,1860
2018-12-05T10:39:25.673Z,1876
2018-12-05T10:40:25.648Z,1888
2018-12-05T10:41:25.627Z,1908
2018-12-05T10:42:25.618Z,1912
2018-12-05T10:43:25.592Z,1932
2018-12-05T10:44:25.581Z,1944
2018-12-05T10:45:25.563Z,1948
2018-12-05T10:46:25.555Z,1932
2018-12-05T10:47:25.525Z,1896
2018-12-05T10:48:25.507Z,1864
2018-12-05T10:49:25.503Z,1832
2018-12-05T10:50:25.478Z,1848
2018-12-05T10:51:25.457Z,1884
2018-12-05T10:52:25.439Z,1944
2018-12-05T10:53:25.425Z,1992
2018-12-05T10:54:25.151Z,2032
2018-12-05T10:55:25.392Z,2032
2018-12-05T10:56:25.378Z,2012
2018-12-05T10:57:25.350Z,1992
2018-12-05T10:58:25.092Z,1952
2018-12-05T10:59:25.319Z,1924
2018-12-05T11:00:25.298Z,1920
2018-12-05T11:01:25.033Z,1924
2018-12-05T11:02:25.260Z,1956
2018-12-05T11:03:26.382Z,2008
2018-12-05T11:04:25.231Z,2036
2018-12-05T11:05:24.964Z,2032
2018-12-05T11:06:25.196Z,2004
2018-12-05T11:07:25.180Z,1952
2018-12-05T11:08:25.163Z,1904
2018-12-05T11:09:25.142Z,1884
2018-12-05T11:10:25.130Z,1900
2018-12-05T11:11:24.864Z,1920
2018-12-05T11:12:24.841Z,1912
2018-12-05T11:13:26.227Z,1932
2018-12-05T11:14:25.052Z,1952
2018-12-05T11:15:25.039Z,1956
2018-12-05T11:16:25.031Z,1952
2018-12-05T11:17:24.752Z,1972
2018-12-05T11:18:24.988Z,1976
2018-12-05T11:19:24.968Z,1972
2018-12-05T11:20:24.948Z,1964
2018-12-05T11:21:24.943Z,1928
2018-12-05T11:22:24.918Z,1908
2018-12-05T11:23:24.902Z,1908
2018-12-05T11:24:24.884Z,1924
2018-12-05T11:25:24.865Z,1944
2018-12-05T11:26:24.599Z,1984
2018-12-05T11:27:24.834Z,2008
2018-12-05T11:28:24.568Z,1996
2018-12-05T11:29:24.795Z,1988
2018-12-05T11:30:24.776Z,1968
2018-12-05T11:31:24.768Z,1952
2018-12-05T11:32:24.754Z,1944
2018-12-05T11:33:24.737Z,1948
2018-12-05T11:34:24.717Z,1960
2018-12-05T11:35:24.694Z,1976
2018-12-05T11:36:24.689Z,1976
2018-12-05T11:37:24.660Z,1908
2018-12-05T11:38:24.644Z,1860
2018-12-05T11:39:24.623Z,1888
2018-12-05T11:40:24.607Z,1900
2018-12-05T11:41:24.593Z,1936
2018-12-05T11:42:24.657Z,1948
2018-12-05T11:43:24.563Z,1932
2018-12-05T11:44:24.046Z,1916
2018-12-05T11:45:24.279Z,1936
2018-12-05T11:46:24.512Z,1940
2018-12-05T11:47:24.531Z,1948
2018-12-05T11:48:24.487Z,1952
2018-12-05T11:49:24.462Z,1944
2018-12-05T11:50:24.448Z,1940
2018-12-05T11:51:24.435Z,1944
2018-12-05T11:52:24.418Z,1944
2018-12-05T11:53:24.144Z,1968
2018-12-05T11:54:24.370Z,1996
2018-12-05T11:55:24.358Z,2032
2018-12-05T11:56:24.091Z,2076
2018-12-05T11:57:24.397Z,2128
2018-12-05T11:58:24.309Z,2164
2018-12-05T11:59:24.292Z,2188
2018-12-05T12:00:24.026Z,2224
2018-12-05T12:01:24.254Z,2240
2018-12-05T12:02:29.483Z,2212
2018-12-05T12:03:23.969Z,2220
2018-12-05T12:04:23.954Z,2196
2018-12-05T12:05:24.811Z,2148
2018-12-05T12:06:24.176Z,2080
2018-12-05T12:07:23.905Z,2016
2018-12-05T12:08:24.225Z,1956
2018-12-05T12:09:24.119Z,1924
2018-12-05T12:10:24.109Z,1916
2018-12-05T12:11:25.477Z,1900
2018-12-05T12:12:24.080Z,1884
2018-12-05T12:13:24.058Z,1860
2018-12-05T12:14:24.045Z,1840
2018-12-05T12:15:23.843Z,1828
2018-12-05T12:16:23.766Z,1824
2018-12-05T12:17:23.997Z,1828
2018-12-05T12:18:23.979Z,1836
2018-12-05T12:19:23.957Z,1856
2018-12-05T12:20:23.949Z,1880
2018-12-05T12:21:23.930Z,1896
2018-12-05T12:22:23.903Z,1888
2018-12-05T12:23:23.887Z,1896
2018-12-05T12:24:23.904Z,1896
2018-12-05T12:25:23.608Z,1904
2018-12-05T12:26:23.841Z,1920
2018-12-05T12:27:23.588Z,1920
2018-12-05T12:28:23.814Z,1928
2018-12-05T12:29:23.786Z,1936
2018-12-05T12:30:23.778Z,1900
2018-12-05T12:31:23.757Z,1928
2018-12-05T12:32:23.741Z,1944
2018-12-05T12:33:23.730Z,1936
2018-12-05T12:34:23.710Z,1892
2018-12-05T12:35:23.686Z,1900
2018-12-05T12:36:23.676Z,1876
2018-12-05T12:37:23.662Z,1864
2018-12-05T12:38:23.635Z,1848
2018-12-05T12:39:23.374Z,1828
2018-12-05T12:40:23.608Z,1792
2018-12-05T12:41:23.348Z,1776
2018-12-05T12:42:23.582Z,1772
2018-12-05T12:43:23.550Z,1788
2018-12-05T12:44:23.541Z,1800
2018-12-05T12:45:24.953Z,1800
2018-12-05T12:46:23.502Z,1796
2018-12-05T12:47:23.487Z,1784
2018-12-05T12:48:23.475Z,1800
2018-12-05T12:49:23.449Z,1824
2018-12-05T12:50:23.204Z,1836
2018-12-05T12:51:23.675Z,1852
2018-12-05T12:52:23.154Z,1856
2018-12-05T12:53:23.386Z,1832
2018-12-05T12:54:23.373Z,1816
2018-12-05T12:55:23.355Z,1824
2018-12-05T12:56:23.335Z,1836
2018-12-05T12:57:23.069Z,1832
2018-12-05T12:58:23.305Z,1824
2018-12-05T12:59:23.290Z,1816
2018-12-05T13:00:23.277Z,1828
2018-12-05T13:01:23.253Z,1816
2018-12-05T13:02:23.695Z,1800
2018-12-05T13:03:22.976Z,1768
2018-12-05T13:04:23.192Z,1748
2018-12-05T13:05:22.940Z,1724
2018-12-05T13:06:23.164Z,1700
2018-12-05T13:07:23.151Z,1704
2018-12-05T13:08:23.136Z,1724
2018-12-05T13:09:23.119Z,1732
2018-12-05T13:10:23.102Z,1740
2018-12-05T13:11:23.086Z,1736
2018-12-05T13:12:23.075Z,1740
2018-12-05T13:13:22.799Z,1752
2018-12-05T13:14:23.031Z,1744
2018-12-05T13:15:22.761Z,1736
2018-12-05T13:16:23.004Z,1728
2018-12-05T13:17:22.988Z,1720
2018-12-05T13:18:24.548Z,1696
2018-12-05T13:19:22.942Z,1664
2018-12-05T13:20:22.931Z,1672
2018-12-05T13:21:22.906Z,1672
2018-12-05T13:22:22.902Z,1676
2018-12-05T13:23:22.885Z,1676
2018-12-05T13:24:22.861Z,1672
2018-12-05T13:25:22.603Z,1656
2018-12-05T13:26:22.582Z,1652
2018-12-05T13:27:22.822Z,1652
2018-12-05T13:28:22.797Z,1640
2018-12-05T13:29:22.526Z,1616
2018-12-05T13:30:22.758Z,1580
2018-12-05T13:31:22.743Z,1584
2018-12-05T13:32:22.727Z,1580
2018-12-05T13:33:22.709Z,1576
2018-12-05T13:34:22.694Z,1560
2018-12-05T13:35:22.675Z,1544
2018-12-05T13:36:22.666Z,1516
2018-12-05T13:37:22.642Z,1500
2018-12-05T13:38:22.619Z,1488
2018-12-05T13:39:22.609Z,1480
2018-12-05T13:40:22.590Z,1484
2018-12-05T13:41:22.579Z,1492
2018-12-05T13:42:22.612Z,1500
2018-12-05T13:43:22.553Z,1508
2018-12-05T13:44:22.314Z,1512
2018-12-05T13:45:22.511Z,1512
2018-12-05T13:46:29.689Z,1520
2018-12-05T13:47:22.471Z,1512
2018-12-05T13:48:22.467Z,1500
2018-12-05T13:49:22.430Z,1484
2018-12-05T13:50:22.168Z,1464
2018-12-05T13:51:22.411Z,1452
2018-12-05T13:52:22.147Z,1436
2018-12-05T13:53:22.366Z,1416
2018-12-05T13:54:22.104Z,1412
2018-12-05T13:55:22.333Z,1408
2018-12-05T13:56:22.063Z,1404
2018-12-05T13:57:22.307Z,1408
2018-12-05T13:58:22.286Z,1400
2018-12-05T13:59:22.270Z,1376
2018-12-05T14:00:22.001Z,1352